Time;durP1;ratioP1;P1;durP2;ratioP2;P2;SDS_P1;SDS_P2;PMS_P1;PMS_P2;Temp;Humidity;BMP_temperature;BMP_pressure;BME280_temperature;BME280_humidity;BME280_pressure;Samples;Min_cycle;Max_cycle;Signal;HPM_P1;HPM_P2
2023/06/19 00:02:00;;;;;;;;;16.50;14.50;;;;;23.37;50.08;98996.22;5089808;27;46836;-63
2023/06/19 00:04:26;;;;;;;;;13.00;13.00;;;;;23.36;50.29;98983.78;5091306;27;45549;-63
2023/06/19 00:06:52;;;;;;;;;10.00;10.00;;;;;23.35;50.72;98998.22;5093638;27;45361;-63
2023/06/19 00:09:18;;;;;;;;;13.50;13.50;;;;;23.36;50.27;98992.69;5088742;27;45538;-63
2023/06/19 00:11:43;;;;;;;;;14.50;14.25;;;;;23.38;49.96;99004.16;5075824;27;47757;-63
2023/06/19 00:14:08;;;;;;;;;15.75;14.50;;;;;23.40;49.67;99014.78;5090537;27;45503;-63
2023/06/19 00:16:34;;;;;;;;;14.50;14.50;;;;;23.39;50.16;99026.53;5076557;27;45409;-63
2023/06/19 00:18:59;;;;;;;;;18.50;17.50;;;;;23.39;50.54;99038.16;5095416;27;45704;-63
2023/06/19 00:21:25;;;;;;;;;16.00;16.00;;;;;23.38;50.13;99030.22;5097463;27;46213;-63
2023/06/19 00:23:52;;;;;;;;;12.00;12.00;;;;;23.36;50.52;99027.66;5094700;27;45899;-64
2023/06/19 00:26:19;;;;;;;;;13.25;12.00;;;;;23.36;50.05;99024.97;5095199;27;45505;-64
2023/06/19 00:28:45;;;;;;;;;13.50;13.50;;;;;23.37;50.65;99042.81;5096348;27;45577;-64
2023/06/19 00:31:13;;;;;;;;;15.25;12.75;;;;;23.36;51.00;99029.50;5097106;27;45491;-64
2023/06/19 00:33:39;;;;;;;;;15.00;13.75;;;;;23.37;50.39;99039.28;5095502;27;45380;-63
2023/06/19 00:36:15;;;;;;;;;14.25;13.25;;;;;23.38;50.84;99040.97;5095840;27;45439;-63
2023/06/19 00:38:41;;;;;;;;;14.00;13.50;;;;;23.37;50.96;99039.28;5090821;27;45597;-64
2023/06/19 00:41:07;;;;;;;;;16.00;15.75;;;;;23.36;51.16;99051.03;5090082;27;45502;-64
2023/06/19 00:43:33;;;;;;;;;12.50;12.00;;;;;23.37;51.05;99066.19;5094554;27;45404;-64
2023/06/19 00:45:59;;;;;;;;;13.00;12.25;;;;;23.35;51.02;99069.03;5087832;27;45398;-64
2023/06/19 00:48:27;;;;;;;;;14.25;12.75;;;;;23.35;51.06;99060.09;5074927;27;45461;-64
2023/06/19 00:50:52;;;;;;;;;15.25;14.50;;;;;23.34;51.36;99067.31;5090972;27;45424;-64
2023/06/19 00:53:19;;;;;;;;;14.75;14.75;;;;;23.34;51.11;99064.63;5095644;27;45432;-64
2023/06/19 00:55:46;;;;;;;;;17.25;15.00;;;;;23.35;51.15;99069.03;5094294;27;45556;-64
2023/06/19 00:58:12;;;;;;;;;12.75;12.00;;;;;23.37;51.31;99060.81;5097145;27;45447;-64
2023/06/19 01:00:37;;;;;;;;;15.75;15.00;;;;;23.36;51.56;99057.25;5076512;27;45571;-64
2023/06/19 01:03:03;;;;;;;;;13.25;13.25;;;;;23.32;51.00;99054.00;5097407;27;45413;-64
2023/06/19 01:05:29;;;;;;;;;13.00;10.25;;;;;23.27;52.10;99050.91;5092049;27;45409;-64
2023/06/19 01:07:56;;;;;;;;;13.25;13.25;;;;;23.24;51.36;99059.28;5095054;27;45387;-64
2023/06/19 01:10:30;;;;;;;;;14.75;14.25;;;;;23.21;52.03;99051.47;5084715;27;45778;-64
2023/06/19 01:13:17;;;;;;;;;14.25;13.25;;;;;23.22;52.14;99047.81;5094939;27;45431;-63
2023/06/19 01:15:43;;;;;;;;;14.00;12.25;;;;;23.18;52.25;99050.91;5093540;27;45519;-63
2023/06/19 01:18:11;;;;;;;;;14.75;14.75;;;;;23.16;52.60;99045.66;5096957;27;45311;-63
2023/06/19 01:20:37;;;;;;;;;12.25;12.00;;;;;23.13;52.45;99043.25;5085891;27;45498;-63
2023/06/19 01:23:09;;;;;;;;;9.80;9.80;;;;;23.11;53.01;99039.03;5097447;27;45388;-64
2023/06/19 01:25:35;;;;;;;;;12.50;11.50;;;;;23.07;52.61;99051.06;5084342;27;45571;-64
2023/06/19 01:28:04;;;;;;;;;11.00;11.00;;;;;23.04;52.38;99045.97;5094943;27;45492;-64
2023/06/19 01:30:29;;;;;;;;;10.50;10.50;;;;;22.99;53.03;99054.47;5088369;27;46148;-64
2023/06/19 01:33:12;;;;;;;;;15.75;13.75;;;;;22.96;53.07;99046.66;5096994;27;45538;-64
2023/06/19 01:35:41;;;;;;;;;14.00;13.50;;;;;22.93;53.47;99058.56;5086202;27;45427;-64
2023/06/19 01:38:07;;;;;;;;;13.25;13.25;;;;;22.91;54.31;99046.25;5094548;27;45353;-64
2023/06/19 01:40:34;;;;;;;;;14.75;14.75;;;;;22.87;54.26;99045.69;5088083;27;46088;-64
2023/06/19 01:43:04;;;;;;;;;15.00;14.60;;;;;22.85;53.59;99049.50;5096372;27;45385;-64
2023/06/19 01:45:30;;;;;;;;;15.75;13.50;;;;;22.83;53.50;99046.09;5089649;27;45464;-64
2023/06/19 01:47:56;;;;;;;;;17.75;17.75;;;;;22.81;54.17;99048.94;5078126;27;46081;-64
2023/06/19 01:50:25;;;;;;;;;9.50;9.00;;;;;22.82;53.48;99047.94;5092641;27;45328;-64
2023/06/19 01:52:51;;;;;;;;;13.40;13.40;;;;;22.82;53.89;99036.34;5096533;27;45537;-64
2023/06/19 01:55:17;;;;;;;;;12.75;12.75;;;;;22.80;54.13;99043.69;5092848;27;45750;-64
2023/06/19 01:57:42;;;;;;;;;14.00;14.00;;;;;22.80;54.23;99035.63;5081024;27;45686;-63
2023/06/19 02:00:10;;;;;;;;;16.50;15.00;;;;;22.80;54.11;99024.88;5084207;27;46580;-64
2023/06/19 02:02:35;;;;;;;;;17.00;16.00;;;;;22.83;53.92;99033.50;5095140;27;45657;-64
2023/06/19 02:05:01;;;;;;;;;16.50;15.50;;;;;22.86;53.82;99024.31;5087763;27;45562;-64
2023/06/19 02:07:26;;;;;;;;;17.25;14.50;;;;;22.87;53.42;99034.94;5096006;27;45451;-64
2023/06/19 02:09:51;;;;;;;;;14.00;13.25;;;;;22.89;54.03;99038.34;5092199;27;45397;-64
2023/06/19 02:12:17;;;;;;;;;13.75;13.25;;;;;22.87;53.58;99020.66;5094101;27;45401;-64
2023/06/19 02:14:43;;;;;;;;;13.75;13.75;;;;;22.86;54.03;99027.84;5093239;27;45429;-63
2023/06/19 02:17:08;;;;;;;;;15.00;12.25;;;;;22.88;53.62;99027.72;5095647;27;45405;-63
2023/06/19 02:19:33;;;;;;;;;12.75;12.75;;;;;22.90;54.19;99028.44;5092728;27;45512;-64
2023/06/19 02:21:59;;;;;;;;;10.75;10.00;;;;;22.90;53.84;99015.00;5095306;27;45566;-64
2023/06/19 02:24:25;;;;;;;;;14.00;14.00;;;;;22.90;53.85;99023.06;5076024;27;45453;-63
2023/06/19 02:26:50;;;;;;;;;16.00;14.25;;;;;22.88;53.69;99022.34;5096201;27;45410;-64
2023/06/19 02:29:16;;;;;;;;;12.75;12.75;;;;;22.88;54.04;99014.28;5091617;27;45436;-64
2023/06/19 02:31:42;;;;;;;;;15.75;13.00;;;;;22.83;54.24;99017.38;5095239;27;45460;-64
2023/06/19 02:34:09;;;;;;;;;18.75;16.25;;;;;22.81;54.47;99029.25;5092921;27;45495;-64
2023/06/19 02:36:35;;;;;;;;;14.75;13.25;;;;;22.82;54.78;99026.44;5068850;28;45429;-64
2023/06/19 02:39:01;;;;;;;;;13.00;13.00;;;;;22.81;54.32;99030.09;5088386;27;46128;-64
2023/06/19 02:41:26;;;;;;;;;15.25;15.25;;;;;22.82;54.63;99017.53;5079855;27;45444;-64
2023/06/19 02:43:51;;;;;;;;;14.00;14.00;;;;;22.81;54.91;99013.13;5091154;27;45792;-63
2023/06/19 02:46:17;;;;;;;;;15.75;15.25;;;;;22.77;54.82;99017.97;5091149;27;45472;-64
2023/06/19 02:48:42;;;;;;;;;16.25;15.75;;;;;22.76;55.02;99016.22;5092671;27;46195;-64
2023/06/19 02:51:08;;;;;;;;;12.00;12.00;;;;;22.79;54.71;99007.06;5088589;27;45334;-64
2023/06/19 02:53:33;;;;;;;;;12.25;11.25;;;;;22.79;54.64;99005.22;5094085;27;45360;-64
2023/06/19 02:55:59;;;;;;;;;15.00;15.00;;;;;22.78;54.40;99000.84;5087953;27;45803;-64
2023/06/19 02:58:26;;;;;;;;;16.50;15.00;;;;;22.78;54.84;99008.91;5106288;27;46385;-64
2023/06/19 03:00:52;;;;;;;;;17.75;15.25;;;;;22.79;54.37;98999.00;5069617;27;45587;-64
2023/06/19 03:03:17;;;;;;;;;15.50;14.50;;;;;22.77;55.01;99003.69;5093096;27;45450;-64
2023/06/19 03:05:43;;;;;;;;;14.00;13.50;;;;;22.72;54.65;99000.53;5091790;27;45481;-64
2023/06/19 03:08:08;;;;;;;;;14.50;14.00;;;;;22.68;55.15;99004.47;5094926;27;45491;-64
2023/06/19 03:10:33;;;;;;;;;15.75;13.75;;;;;22.64;55.13;99010.13;5091326;27;45460;-64
2023/06/19 03:12:59;;;;;;;;;16.75;15.50;;;;;22.62;55.44;99014.78;5094695;27;45705;-64
2023/06/19 03:15:25;;;;;;;;;15.00;15.00;;;;;22.56;55.58;99010.00;5092035;27;45384;-64
2023/06/19 03:17:50;;;;;;;;;15.00;14.25;;;;;22.51;55.90;99014.06;5075937;27;47186;-64
2023/06/19 03:20:16;;;;;;;;;16.00;14.75;;;;;22.45;55.70;99001.22;5092555;27;45572;-64
2023/06/19 03:22:41;;;;;;;;;15.00;13.25;;;;;22.42;56.40;99007.72;5094687;27;45710;-64
2023/06/19 03:25:08;;;;;;;;;15.25;15.00;;;;;22.38;55.67;99008.13;5089742;27;45457;-64
2023/06/19 03:27:33;;;;;;;;;12.75;12.75;;;;;22.33;56.86;99011.22;5076420;27;47070;-64
2023/06/19 03:29:59;;;;;;;;;21.00;16.00;;;;;22.29;56.45;99021.38;5092463;27;45543;-64
2023/06/19 03:32:24;;;;;;;;;12.75;10.00;;;;;22.26;56.30;99015.47;5094811;27;45298;-63
2023/06/19 03:34:50;;;;;;;;;17.50;16.25;;;;;22.24;57.18;99012.91;5092647;27;45496;-64
2023/06/19 03:37:15;;;;;;;;;15.50;15.50;;;;;22.20;57.34;99011.47;5092036;27;46506;-64
2023/06/19 03:39:42;;;;;;;;;17.75;15.50;;;;;22.17;56.85;99024.31;5087949;27;45456;-64
2023/06/19 03:42:07;;;;;;;;;18.25;15.50;;;;;22.15;57.48;99012.88;5094390;27;45526;-64
2023/06/19 03:44:33;;;;;;;;;17.50;15.25;;;;;22.17;56.63;99024.31;5088752;27;45522;-64
2023/06/19 03:46:59;;;;;;;;;15.50;13.75;;;;;22.19;57.13;99027.72;5094127;27;45505;-64
2023/06/19 03:49:24;;;;;;;;;16.25;13.50;;;;;22.20;57.14;99021.38;5089438;27;45506;-63
2023/06/19 03:51:50;;;;;;;;;14.50;14.50;;;;;22.26;57.25;99026.19;5092227;27;45824;-61
2023/06/19 03:54:15;;;;;;;;;18.00;17.00;;;;;22.35;56.98;99022.66;5090508;27;45411;-62
2023/06/19 03:56:40;;;;;;;;;17.00;17.00;;;;;22.43;56.35;99024.69;5075346;27;47077;-61
2023/06/19 03:59:06;;;;;;;;;12.00;12.00;;;;;22.50;56.33;99032.03;5090936;27;45545;-61
2023/06/19 04:01:31;;;;;;;;;15.75;15.50;;;;;22.53;56.34;99029.06;5089645;27;45433;-61
2023/06/19 04:03:57;;;;;;;;;14.25;10.25;;;;;22.54;55.94;99032.59;5087171;27;45526;-61
2023/06/19 04:06:22;;;;;;;;;21.25;20.50;;;;;22.54;56.34;99029.91;5083899;27;45423;-61
2023/06/19 04:08:48;;;;;;;;;14.00;13.50;;;;;22.53;55.84;99028.22;5085562;27;45377;-61
2023/06/19 04:11:13;;;;;;;;;16.00;14.50;;;;;22.50;55.91;99036.56;5088898;27;45361;-62
2023/06/19 04:13:39;;;;;;;;;15.75;14.25;;;;;22.44;56.67;99046.03;5081334;27;45555;-61
2023/06/19 04:16:04;;;;;;;;;13.00;12.50;;;;;22.41;57.15;99048.16;5091004;27;46132;-61
2023/06/19 04:18:30;;;;;;;;;17.00;16.75;;;;;22.38;56.80;99040.34;5092572;27;45291;-61
2023/06/19 04:20:55;;;;;;;;;8.75;7.00;;;;;22.38;56.91;99034.97;5092280;27;46058;-61
2023/06/19 04:23:20;;;;;;;;;16.75;15.75;;;;;22.37;57.01;99030.59;5093274;27;45302;-60
2023/06/19 04:25:46;;;;;;;;;12.00;12.00;;;;;22.37;57.10;99034.13;5073378;27;48063;-60
2023/06/19 04:28:11;;;;;;;;;14.25;14.25;;;;;22.37;56.72;99039.50;5091782;27;45571;-61
2023/06/19 04:30:39;;;;;;;;;15.50;14.25;;;;;22.39;56.95;99042.91;5084784;27;45658;-60
2023/06/19 04:33:05;;;;;;;;;14.00;12.00;;;;;22.41;57.13;99038.25;5093460;27;45493;-60
2023/06/19 04:35:31;;;;;;;;;14.50;14.25;;;;;22.42;57.11;99039.09;5089112;27;46554;-60
2023/06/19 04:38:00;;;;;;;;;18.25;15.75;;;;;22.41;57.48;99043.63;5084643;27;45346;-60
2023/06/19 04:40:26;;;;;;;;;15.75;15.75;;;;;22.40;57.00;99043.75;5086388;27;45659;-60
2023/06/19 04:42:53;;;;;;;;;17.00;16.75;;;;;22.38;56.83;99046.56;5067367;27;45472;-60
2023/06/19 04:45:19;;;;;;;;;14.50;14.50;;;;;22.38;57.28;99038.53;5083058;27;45628;-60
2023/06/19 04:47:45;;;;;;;;;16.00;16.00;;;;;22.39;57.29;99036.69;5085059;27;45386;-60
2023/06/19 04:50:10;;;;;;;;;16.25;15.00;;;;;22.40;57.62;99038.38;5088995;27;45488;-61
2023/06/19 04:52:35;;;;;;;;;17.75;16.00;;;;;22.42;57.26;99048.00;5088222;27;45437;-61
2023/06/19 04:55:01;;;;;;;;;18.25;14.75;;;;;22.47;57.46;99034.13;5086139;27;45606;-60
2023/06/19 04:57:26;;;;;;;;;16.00;15.00;;;;;22.47;57.25;99045.72;5083714;27;45500;-60
2023/06/19 04:59:52;;;;;;;;;14.50;13.75;;;;;22.48;57.27;99036.69;5071038;27;45547;-61
2023/06/19 05:02:17;;;;;;;;;15.50;14.75;;;;;22.51;56.71;99039.09;5092143;27;45532;-61
2023/06/19 05:04:43;;;;;;;;;17.25;15.00;;;;;22.56;56.87;99044.06;5090189;27;46075;-60
2023/06/19 05:07:10;;;;;;;;;16.00;16.00;;;;;22.60;56.43;99040.13;5082815;27;45377;-59
2023/06/19 05:09:36;;;;;;;;;16.00;13.00;;;;;22.62;56.46;99036.28;5084823;27;45416;-62
2023/06/19 05:12:01;;;;;;;;;17.25;17.25;;;;;22.61;56.40;99045.38;5095289;27;45512;-62
2023/06/19 05:14:27;;;;;;;;;15.25;15.25;;;;;22.61;56.41;99044.50;5093323;27;46088;-62
2023/06/19 05:16:53;;;;;;;;;19.25;16.00;;;;;22.60;56.80;99048.19;5095550;27;45446;-63
2023/06/19 05:19:18;;;;;;;;;15.25;14.00;;;;;22.57;57.20;99046.63;5087421;27;45507;-63
2023/06/19 05:21:44;;;;;;;;;17.75;15.50;;;;;22.55;56.52;99040.53;5094406;27;45469;-62
2023/06/19 05:24:09;;;;;;;;;17.25;16.75;;;;;22.56;57.40;99033.31;5085785;27;46185;-63
2023/06/19 05:26:34;;;;;;;;;12.00;12.00;;;;;22.56;57.68;99042.22;5074804;27;45449;-63
2023/06/19 05:29:00;;;;;;;;;15.25;14.00;;;;;22.60;56.84;99049.03;5091445;27;46059;-63
2023/06/19 05:31:25;;;;;;;;;16.50;16.25;;;;;22.66;56.95;99041.38;5074451;27;45495;-63
2023/06/19 05:33:52;;;;;;;;;17.25;17.00;;;;;22.66;57.13;99052.97;5093904;27;45570;-63
2023/06/19 05:36:17;;;;;;;;;15.00;14.75;;;;;22.67;57.02;99049.31;5083169;27;45488;-64
2023/06/19 05:38:43;;;;;;;;;15.00;13.25;;;;;22.66;57.33;99055.66;5091340;27;45799;-64
2023/06/19 05:41:08;;;;;;;;;16.00;16.00;;;;;22.66;57.15;99055.66;5092843;27;45370;-63
2023/06/19 05:43:34;;;;;;;;;15.50;14.00;;;;;22.64;57.50;99047.75;5093620;27;45940;-62
2023/06/19 05:45:59;;;;;;;;;18.50;18.50;;;;;22.63;57.27;99054.09;5091084;27;45459;-63
2023/06/19 05:48:25;;;;;;;;;17.00;15.75;;;;;22.60;57.20;99046.34;5095103;27;45379;-63
2023/06/19 05:50:51;;;;;;;;;17.00;16.50;;;;;22.57;57.92;99052.00;5088051;27;45544;-64
2023/06/19 05:53:17;;;;;;;;;18.25;14.00;;;;;22.54;57.84;99049.59;5094881;27;46311;-63
2023/06/19 05:55:42;;;;;;;;;16.00;15.75;;;;;22.52;57.99;99046.19;5087565;27;45531;-64
2023/06/19 05:58:08;;;;;;;;;15.75;15.75;;;;;22.52;58.12;99053.38;5095137;27;45462;-64
2023/06/19 06:00:34;;;;;;;;;15.00;15.00;;;;;22.53;57.93;99064.00;5088210;27;45420;-64
2023/06/19 06:02:59;;;;;;;;;18.25;17.75;;;;;22.54;57.68;99049.59;5092456;27;46195;-63
2023/06/19 06:05:26;;;;;;;;;16.75;15.75;;;;;22.56;57.99;99054.81;5090276;27;45431;-64
2023/06/19 06:07:52;;;;;;;;;17.50;16.00;;;;;22.57;58.28;99056.53;5093725;27;45442;-63
2023/06/19 06:10:20;;;;;;;;;23.00;16.25;;;;;22.61;58.56;99055.25;5091981;27;45512;-63
2023/06/19 06:12:45;;;;;;;;;15.50;14.75;;;;;22.66;58.32;99054.81;5093442;27;46314;-65
2023/06/19 06:15:11;;;;;;;;;24.50;18.25;;;;;22.68;57.88;99048.31;5088923;27;45507;-63
2023/06/19 06:17:36;;;;;;;;;16.50;15.50;;;;;22.72;58.01;99054.28;5097103;27;45465;-64
2023/06/19 06:20:06;;;;;;;;;15.75;15.00;;;;;22.75;57.98;99057.53;5088105;27;45376;-64
2023/06/19 06:22:31;;;;;;;;;20.00;19.25;;;;;22.81;58.22;99061.53;5094746;27;46483;-64
2023/06/19 06:24:57;;;;;;;;;16.75;15.75;;;;;22.81;57.25;99054.31;5085811;27;45472;-65
2023/06/19 06:27:22;;;;;;;;;17.00;17.00;;;;;22.84;57.46;99058.56;5093468;27;45431;-65
2023/06/19 06:29:47;;;;;;;;;15.00;13.25;;;;;22.85;57.52;99057.56;5091334;27;45606;-65
2023/06/19 06:32:13;;;;;;;;;18.00;16.00;;;;;22.87;57.30;99058.28;5094060;27;45494;-65
2023/06/19 06:34:38;;;;;;;;;16.00;15.25;;;;;22.88;57.77;99058.13;5091202;27;45465;-66
2023/06/19 06:37:03;;;;;;;;;17.00;17.00;;;;;22.87;57.88;99061.81;5093118;27;45775;-65
2023/06/19 06:39:29;;;;;;;;;21.00;18.75;;;;;22.87;57.64;99067.19;5087825;27;45556;-65
2023/06/19 06:41:55;;;;;;;;;14.25;14.25;;;;;22.89;57.82;99067.06;5093993;27;45735;-64
2023/06/19 06:44:20;;;;;;;;;18.25;16.75;;;;;22.90;57.78;99061.53;5089039;27;45437;-64
2023/06/19 06:46:46;;;;;;;;;20.00;18.25;;;;;22.93;58.32;99068.47;5093314;27;45487;-64
2023/06/19 06:49:11;;;;;;;;;20.25;17.50;;;;;22.94;58.03;99079.09;5090187;27;45551;-65
2023/06/19 06:51:37;;;;;;;;;18.25;16.00;;;;;22.94;58.14;99079.09;5091683;27;46357;-65
2023/06/19 06:54:02;;;;;;;;;17.25;16.00;;;;;22.88;58.01;99082.34;5090699;27;45481;-64
2023/06/19 06:56:27;;;;;;;;;17.75;14.75;;;;;22.79;59.12;99091.22;5092367;27;46082;-64
2023/06/19 06:58:53;;;;;;;;;19.25;16.25;;;;;22.69;59.04;99087.66;5091623;27;45499;-63
2023/06/19 07:01:18;;;;;;;;;19.00;16.00;;;;;22.60;59.41;99094.72;5086906;27;45530;-62
2023/06/19 07:03:43;;;;;;;;;17.75;12.75;;;;;22.55;59.78;99094.28;5093119;27;45383;-63
2023/06/19 07:06:09;;;;;;;;;20.25;17.75;;;;;22.51;59.70;99090.16;5092827;27;45318;-64
2023/06/19 07:08:34;;;;;;;;;15.50;15.00;;;;;22.47;60.22;99098.63;5092590;27;45415;-64
2023/06/19 07:11:00;;;;;;;;;18.00;14.50;;;;;22.43;59.41;99089.16;5086804;27;46288;-65
2023/06/19 07:13:25;;;;;;;;;21.00;17.75;;;;;22.40;59.69;99090.28;5092805;27;45374;-64
2023/06/19 07:15:51;;;;;;;;;16.50;13.50;;;;;22.39;59.59;99093.09;5091676;27;45558;-63
2023/06/19 07:18:16;;;;;;;;;19.75;17.75;;;;;22.37;60.38;99097.75;5094523;27;45404;-63
2023/06/19 07:20:42;;;;;;;;;20.75;16.50;;;;;22.35;60.93;99094.34;5078801;27;46335;-64
2023/06/19 07:23:09;;;;;;;;;17.75;15.75;;;;;22.38;60.87;99094.09;5093220;27;45539;-63
2023/06/19 07:25:34;;;;;;;;;17.50;17.50;;;;;22.39;60.33;99085.88;5085137;27;45431;-63
2023/06/19 07:28:01;;;;;;;;;18.00;18.00;;;;;22.40;61.20;99089.44;5091707;27;45343;-63
2023/06/19 07:30:27;;;;;;;;;21.00;21.00;;;;;22.40;62.30;99087.59;5091243;27;46160;-63
2023/06/19 07:32:52;;;;;;;;;20.50;17.00;;;;;22.42;62.46;99084.78;5092956;27;45380;-64
2023/06/19 07:35:17;;;;;;;;;16.25;15.50;;;;;22.48;63.09;99084.19;5072401;28;45539;-65
2023/06/19 07:37:44;;;;;;;;;21.25;21.25;;;;;22.52;63.16;99086.47;5091374;27;45516;-64
2023/06/19 07:40:10;;;;;;;;;18.75;18.25;;;;;22.58;62.95;99090.47;5068996;28;48200;-64
2023/06/19 07:42:35;;;;;;;;;17.75;16.50;;;;;22.62;62.40;99081.97;5069143;27;45909;-64
2023/06/19 07:45:01;;;;;;;;;20.50;19.00;;;;;22.64;63.70;99096.13;5074802;27;45492;-62
2023/06/19 07:47:26;;;;;;;;;24.00;19.50;;;;;22.71;62.94;99084.81;5094010;27;45497;-63
2023/06/19 07:49:52;;;;;;;;;21.00;20.50;;;;;22.75;63.14;99083.56;5090847;27;45427;-64
2023/06/19 07:52:17;;;;;;;;;20.25;18.50;;;;;22.84;62.39;99085.44;5093574;27;45369;-64
2023/06/19 07:54:55;;;;;;;;;19.75;19.50;;;;;22.92;62.60;99086.44;5089593;27;45427;-63
2023/06/19 07:57:21;;;;;;;;;20.25;19.75;;;;;22.97;62.91;99081.47;5089056;27;45384;-63
2023/06/19 07:59:48;;;;;;;;;24.25;21.75;;;;;23.03;62.28;99079.22;5086291;27;45632;-63
2023/06/19 08:02:14;;;;;;;;;22.75;22.00;;;;;23.08;62.72;99088.59;5091524;27;45671;-64
2023/06/19 08:04:39;;;;;;;;;22.50;20.50;;;;;23.20;61.86;99094.66;5087733;27;45411;-64
2023/06/19 08:07:05;;;;;;;;;25.25;22.25;;;;;23.28;61.69;99087.59;5090222;27;45587;-64
2023/06/19 08:09:30;;;;;;;;;23.75;20.50;;;;;23.38;62.18;99078.66;5087249;27;46651;-63
2023/06/19 08:11:57;;;;;;;;;18.00;16.75;;;;;23.42;61.89;99085.44;5075891;27;45559;-64
2023/06/19 08:14:22;;;;;;;;;20.00;18.50;;;;;23.42;61.78;99080.06;5070064;28;45397;-64
2023/06/19 08:16:47;;;;;;;;;24.75;20.75;;;;;23.47;61.49;99085.84;5087790;27;45460;-64
2023/06/19 08:19:13;;;;;;;;;17.50;17.50;;;;;23.52;60.63;99080.91;5084267;27;46377;-64
2023/06/19 08:21:38;;;;;;;;;22.00;20.25;;;;;23.56;60.38;99076.97;5091746;27;45570;-64
2023/06/19 08:24:04;;;;;;;;;27.75;22.50;;;;;23.63;60.66;99073.53;5090999;27;45818;-64
2023/06/19 08:26:29;;;;;;;;;19.50;17.25;;;;;23.68;59.70;99067.72;5082624;27;45481;-63
2023/06/19 08:28:54;;;;;;;;;19.00;18.50;;;;;23.72;59.76;99068.28;5090721;27;46062;-64
2023/06/19 08:31:21;;;;;;;;;18.50;16.50;;;;;23.72;59.39;99065.59;5080676;27;45317;-64
2023/06/19 08:33:48;;;;;;;;;19.75;18.50;;;;;23.73;59.22;99070.81;5091549;27;45431;-63
2023/06/19 08:36:14;;;;;;;;;17.25;17.00;;;;;23.78;58.97;99067.72;5082553;27;45447;-64
2023/06/19 08:38:39;;;;;;;;;16.50;16.50;;;;;23.86;58.77;99060.56;5093374;27;45526;-64
2023/06/19 08:41:04;;;;;;;;;18.00;17.25;;;;;23.97;58.86;99063.06;5087241;27;45517;-63
2023/06/19 08:43:30;;;;;;;;;19.50;18.75;;;;;24.10;58.86;99065.47;5095940;27;45435;-64
2023/06/19 08:46:18;;;;;;;;;20.00;18.00;;;;;24.25;58.58;99066.69;5090824;27;45538;-64
2023/06/19 08:48:44;;;;;;;;;23.25;21.25;;;;;24.37;58.76;99066.47;5083567;27;46262;-64
2023/06/19 08:51:11;;;;;;;;;25.25;24.75;;;;;24.48;58.43;99068.97;5087809;27;45376;-64
2023/06/19 08:53:47;;;;;;;;;22.25;18.75;;;;;24.52;58.17;99052.34;5095414;27;45372;-64
2023/06/19 08:56:13;;;;;;;;;26.00;22.50;;;;;24.57;57.83;99051.91;5093648;27;45518;-64
2023/06/19 08:58:39;;;;;;;;;21.75;21.00;;;;;24.57;57.82;99057.28;5093902;27;45482;-64
2023/06/19 09:01:04;;;;;;;;;24.25;22.25;;;;;24.53;57.94;99058.59;5094985;27;45534;-64
2023/06/19 09:03:30;;;;;;;;;28.50;25.50;;;;;24.53;58.39;99054.03;5077391;27;45547;-64
2023/06/19 09:05:55;;;;;;;;;24.75;24.00;;;;;24.55;58.44;99045.81;5091450;27;45541;-64
2023/06/19 09:08:22;;;;;;;;;24.00;22.50;;;;;24.59;58.85;99045.38;5096405;27;45460;-64
2023/06/19 09:10:58;;;;;;;;;25.25;24.50;;;;;24.68;58.53;99048.97;5092928;27;45403;-63
2023/06/19 09:13:24;;;;;;;;;25.50;25.00;;;;;24.78;58.22;99052.47;5095210;27;45424;-64
2023/06/19 09:16:01;;;;;;;;;27.00;25.25;;;;;24.88;58.17;99049.69;5112749;27;45388;-64
2023/06/19 09:18:29;;;;;;;;;18.50;18.50;;;;;24.97;57.63;99041.53;5097127;27;46490;-64
2023/06/19 09:20:55;;;;;;;;;23.25;23.25;;;;;25.09;56.97;99046.72;5097066;27;45573;-64
2023/06/19 09:23:20;;;;;;;;;23.75;23.75;;;;;25.25;56.85;99034.22;5096929;27;45473;-64
2023/06/19 09:25:57;;;;;;;;;23.00;23.00;;;;;25.45;56.15;99034.03;5096357;27;45638;-65
2023/06/19 09:28:25;;;;;;;;;26.50;24.50;;;;;25.62;55.88;99035.88;5096374;27;45526;-64
2023/06/19 09:31:02;;;;;;;;;23.00;22.25;;;;;25.79;54.86;99031.41;5096499;27;45477;-65
2023/06/19 09:33:29;;;;;;;;;22.25;21.00;;;;;25.92;54.99;99031.81;5096344;27;45524;-65
2023/06/19 09:35:56;;;;;;;;;26.75;25.50;;;;;26.01;54.58;99037.06;5096484;27;45608;-65
2023/06/19 09:38:24;;;;;;;;;23.00;23.00;;;;;26.17;54.82;99044.41;5095988;27;46232;-64
2023/06/19 09:40:51;;;;;;;;;25.25;23.25;;;;;26.35;54.62;99038.94;5096118;27;45452;-65
2023/06/19 09:43:20;;;;;;;;;23.75;22.25;;;;;26.54;53.51;99035.13;5077652;27;45411;-65
2023/06/19 09:45:50;;;;;;;;;22.50;22.50;;;;;26.68;52.84;99029.91;5096053;27;45440;-64
2023/06/19 09:48:20;;;;;;;;;26.25;25.25;;;;;26.80;52.73;99027.75;5095945;27;46196;-64
2023/06/19 09:50:50;;;;;;;;;26.25;23.00;;;;;26.91;52.38;99013.88;5095054;27;45421;-64
2023/06/19 09:53:17;;;;;;;;;25.00;24.00;;;;;27.01;52.03;99016.44;5096037;27;45416;-64
2023/06/19 09:55:42;;;;;;;;;23.75;22.00;;;;;27.09;51.78;99016.47;5095250;27;45383;-64
2023/06/19 09:58:09;;;;;;;;;28.00;25.75;;;;;27.09;51.40;99011.06;5095751;27;46088;-64
2023/06/19 10:00:37;;;;;;;;;28.25;22.50;;;;;27.07;51.45;99008.53;5095848;27;45488;-65
2023/06/19 10:03:04;;;;;;;;;27.50;25.00;;;;;27.04;50.81;99005.28;5096091;27;45464;-64
2023/06/19 10:05:32;;;;;;;;;24.50;22.50;;;;;27.03;50.88;99006.31;5095565;27;45384;-65
2023/06/19 10:07:59;;;;;;;;;22.25;22.25;;;;;26.99;50.40;99002.25;5095774;27;46495;-65
2023/06/19 10:10:28;;;;;;;;;24.50;21.75;;;;;26.93;51.01;99001.03;5095828;27;45712;-64
2023/06/19 10:13:14;;;;;;;;;22.00;21.50;;;;;26.95;50.96;98996.34;5077232;27;45382;-64
2023/06/19 10:15:47;;;;;;;;;24.75;22.25;;;;;26.96;50.82;98989.91;5095720;27;45467;-64
2023/06/19 10:18:17;;;;;;;;;26.50;25.00;;;;;26.93;50.99;98986.66;5095099;27;46358;-64
2023/06/19 10:20:44;;;;;;;;;25.25;23.25;;;;;26.96;51.13;99000.75;5077196;27;45393;-64
2023/06/19 10:23:18;;;;;;;;;26.00;22.25;;;;;27.00;50.69;98996.66;5095230;27;45483;-64
2023/06/19 10:25:45;;;;;;;;;16.00;15.00;;;;;27.02;50.05;98986.53;5095496;27;45447;-64
2023/06/19 10:28:17;;;;;;;;;21.50;21.25;;;;;27.05;49.94;98991.59;5095011;27;45508;-64
2023/06/19 10:30:42;;;;;;;;;23.75;22.75;;;;;27.06;50.09;98990.59;5095727;27;45376;-64
2023/06/19 10:33:07;;;;;;;;;27.75;23.75;;;;;27.08;49.98;98977.72;5095366;27;45470;-64
2023/06/19 10:35:40;;;;;;;;;28.75;28.00;;;;;27.03;49.88;98985.50;5095484;27;45495;-64
2023/06/19 10:38:07;;;;;;;;;25.00;24.75;;;;;26.91;49.68;98981.41;5095120;27;45403;-64
2023/06/19 10:40:32;;;;;;;;;24.75;23.00;;;;;26.81;50.71;98990.72;5076147;27;46342;-64
2023/06/19 10:42:58;;;;;;;;;26.75;25.50;;;;;26.70;51.60;98981.91;5095123;27;45408;-64
2023/06/19 10:45:28;;;;;;;;;24.75;23.75;;;;;26.71;51.86;98978.19;5095435;27;45588;-64
2023/06/19 10:47:54;;;;;;;;;28.25;25.25;;;;;26.69;50.86;98971.25;5095349;27;46437;-64
2023/06/19 10:50:20;;;;;;;;;30.25;26.75;;;;;26.57;51.39;98969.91;5095559;27;45316;-64
2023/06/19 10:52:47;;;;;;;;;18.25;18.25;;;;;26.44;51.51;98969.53;5095125;27;45441;-64
2023/06/19 10:55:13;;;;;;;;;26.00;24.50;;;;;26.28;51.46;98973.03;5095033;27;45518;-64
2023/06/19 10:57:44;;;;;;;;;25.25;21.75;;;;;26.16;52.18;98971.59;5095019;27;45481;-64
2023/06/19 11:00:13;;;;;;;;;26.25;26.25;;;;;26.10;52.15;98959.63;5094728;27;45449;-64
2023/06/19 11:02:43;;;;;;;;;26.75;26.50;;;;;26.08;52.28;98962.47;5094394;27;45575;-64
2023/06/19 11:05:10;;;;;;;;;20.00;20.00;;;;;26.03;52.74;98962.13;5094943;27;45559;-63
2023/06/19 11:07:35;;;;;;;;;27.25;24.50;;;;;25.95;53.31;98950.44;5095279;27;46972;-64
2023/06/19 11:10:02;;;;;;;;;24.25;22.75;;;;;25.92;53.27;98948.91;5094849;27;45425;-64
2023/06/19 11:12:28;;;;;;;;;25.50;25.50;;;;;25.96;53.26;98955.69;5094952;27;45363;-64
2023/06/19 11:14:53;;;;;;;;;23.75;23.75;;;;;25.97;52.62;98945.72;5095005;27;45536;-64